createdAt,value
2022-09-28T00:00:10.539Z,10.78
2022-09-28T00:03:35.935Z,10.8
2022-09-28T00:07:01.306Z,10.83
2022-09-28T00:10:26.695Z,10.87
2022-09-28T00:13:52.062Z,10.92
2022-09-28T00:17:17.427Z,10.98
2022-09-28T00:20:42.824Z,11.05
2022-09-28T00:24:08.192Z,11.06
2022-09-28T00:27:33.580Z,11.05
2022-09-28T00:30:58.971Z,11.06
2022-09-28T00:34:24.333Z,11.05
2022-09-28T00:37:49.691Z,11.05
2022-09-28T00:41:15.068Z,11.02
2022-09-28T00:44:40.465Z,10.97
2022-09-28T00:48:05.802Z,10.95
2022-09-28T00:51:31.188Z,10.96
2022-09-28T00:54:56.626Z,10.96
2022-09-28T00:58:21.998Z,10.95
2022-09-28T01:01:47.481Z,10.95
2022-09-28T01:05:12.795Z,10.93
2022-09-28T01:08:38.155Z,10.88
2022-09-28T01:12:03.535Z,10.82
2022-09-28T01:15:28.908Z,10.81
2022-09-28T01:18:54.264Z,10.81
2022-09-28T01:22:19.635Z,10.86
2022-09-28T01:25:45.033Z,10.88
2022-09-28T01:29:10.479Z,10.92
2022-09-28T01:32:35.813Z,10.93
2022-09-28T01:36:01.196Z,10.95
2022-09-28T01:39:26.512Z,10.94
2022-09-28T01:42:51.899Z,10.97
2022-09-28T01:46:17.329Z,10.99
2022-09-28T01:49:42.696Z,10.92
2022-09-28T01:53:08.058Z,10.88
2022-09-28T01:56:33.435Z,10.81
2022-09-28T01:59:58.787Z,10.78
2022-09-28T02:03:24.171Z,10.75
2022-09-28T02:06:49.562Z,10.66
2022-09-28T02:10:15.016Z,10.63
2022-09-28T02:13:40.310Z,10.64
2022-09-28T02:17:05.690Z,10.66
2022-09-28T02:20:31.037Z,10.66
2022-09-28T02:23:56.436Z,10.59
2022-09-28T02:27:21.885Z,10.58
2022-09-28T02:30:47.207Z,10.61
2022-09-28T02:34:12.625Z,10.67
2022-09-28T02:37:37.976Z,10.75
2022-09-28T02:41:03.384Z,10.77
2022-09-28T02:44:28.781Z,10.76
2022-09-28T02:47:54.141Z,10.74
2022-09-28T02:51:19.523Z,10.72
2022-09-28T02:54:44.888Z,10.64
2022-09-28T02:58:10.244Z,10.62
2022-09-28T03:01:35.700Z,10.64
2022-09-28T03:05:01.073Z,10.69
2022-09-28T03:08:26.433Z,10.74
2022-09-28T03:11:51.835Z,10.75
2022-09-28T03:15:17.222Z,10.81
2022-09-28T03:18:42.613Z,10.83
2022-09-28T03:22:07.943Z,10.87
2022-09-28T03:25:33.287Z,10.88
2022-09-28T03:28:58.653Z,10.88
2022-09-28T03:32:24.031Z,10.9
2022-09-28T03:35:49.412Z,10.91
2022-09-28T03:39:14.910Z,10.95
2022-09-28T03:42:40.117Z,10.99
2022-09-28T03:46:05.647Z,11.02
2022-09-28T03:49:30.941Z,11.05
2022-09-28T03:52:56.338Z,11.05
2022-09-28T03:56:21.728Z,11.08
2022-09-28T03:59:47.092Z,11.06
2022-09-28T04:03:12.445Z,11.05
2022-09-28T04:06:37.830Z,11.09
2022-09-28T04:10:03.274Z,11.11
2022-09-28T04:13:28.614Z,11.11
2022-09-28T04:16:54.033Z,11.06
2022-09-28T04:20:19.382Z,11.02
2022-09-28T04:23:44.756Z,10.98
2022-09-28T04:27:10.150Z,10.92
2022-09-28T04:30:35.569Z,10.88
2022-09-28T04:34:00.984Z,10.81
2022-09-28T04:37:26.423Z,10.77
2022-09-28T04:40:51.810Z,10.74
2022-09-28T04:44:17.182Z,10.72
2022-09-28T04:47:42.538Z,10.67
2022-09-28T04:51:07.948Z,10.66
2022-09-28T04:54:33.321Z,10.7
2022-09-28T04:57:58.692Z,10.69
2022-09-28T05:01:24.203Z,10.69
2022-09-28T05:04:49.467Z,10.7
2022-09-28T05:08:14.854Z,10.71
2022-09-28T05:11:40.272Z,10.72
2022-09-28T05:15:05.665Z,10.74
2022-09-28T05:18:31.100Z,10.75
2022-09-28T05:21:56.464Z,10.76
2022-09-28T05:25:21.891Z,10.77
2022-09-28T05:28:47.318Z,10.77
2022-09-28T05:32:12.697Z,10.79
2022-09-28T05:35:38.120Z,10.82
2022-09-28T05:39:03.473Z,10.85
2022-09-28T05:42:28.876Z,10.92
2022-09-28T05:45:55.743Z,10.94
2022-09-28T05:49:19.645Z,10.97
2022-09-28T05:52:45.047Z,11.01
2022-09-28T05:56:10.403Z,11.05
2022-09-28T05:59:35.856Z,11.07
2022-09-28T06:03:03.384Z,11.11
2022-09-28T06:06:26.597Z,11.11
2022-09-28T06:09:52.016Z,11.13
2022-09-28T06:13:17.335Z,11.15
2022-09-28T06:16:43.899Z,11.19
2022-09-28T06:20:08.106Z,11.22
2022-09-28T06:23:33.438Z,11.23
2022-09-28T06:26:58.864Z,11.26
2022-09-28T06:30:24.265Z,11.29
2022-09-28T06:33:49.631Z,11.32
2022-09-28T06:37:14.998Z,11.31
2022-09-28T06:40:40.468Z,11.28
2022-09-28T06:44:05.740Z,11.3
2022-09-28T06:47:31.103Z,11.31
2022-09-28T06:50:56.485Z,11.29
2022-09-28T06:54:21.874Z,11.26
2022-09-28T06:57:47.239Z,11.28
2022-09-28T07:01:12.671Z,11.28
2022-09-28T07:04:38.021Z,11.29
2022-09-28T07:08:03.410Z,11.3
2022-09-28T07:11:28.757Z,11.34
2022-09-28T07:14:54.550Z,11.38
2022-09-28T07:18:19.579Z,11.4
2022-09-28T07:21:47.001Z,11.45
2022-09-28T07:25:10.277Z,11.51
2022-09-28T07:28:35.683Z,11.58
2022-09-28T07:32:01.057Z,11.64
2022-09-28T07:35:26.442Z,11.67
2022-09-28T07:38:51.803Z,11.73
2022-09-28T07:42:17.184Z,11.75
2022-09-28T07:45:42.674Z,11.74
2022-09-28T07:49:09.730Z,11.76
2022-09-28T07:52:33.380Z,11.79
2022-09-28T07:55:58.718Z,11.78
2022-09-28T07:59:24.109Z,11.84
2022-09-28T08:02:49.480Z,11.88
2022-09-28T08:06:14.888Z,11.9
2022-09-28T08:09:40.284Z,11.89
2022-09-28T08:13:06.552Z,11.94
2022-09-28T08:16:31.172Z,11.96
2022-09-28T08:19:56.445Z,12.03
2022-09-28T08:23:21.864Z,12.05
2022-09-28T08:26:47.307Z,12.06
2022-09-28T08:30:12.636Z,12.04
2022-09-28T08:33:38.048Z,12.06
2022-09-28T08:37:03.432Z,12.02
2022-09-28T08:40:28.837Z,11.99
2022-09-28T08:43:54.281Z,12
2022-09-28T08:47:19.622Z,12.05
2022-09-28T08:50:44.990Z,12.14
2022-09-28T08:54:11.181Z,12.16
2022-09-28T08:57:35.911Z,12.21
2022-09-28T09:01:01.449Z,12.28
2022-09-28T09:04:26.688Z,12.38
2022-09-28T09:07:52.065Z,12.49
2022-09-28T09:11:17.475Z,12.58
2022-09-28T09:14:42.843Z,12.65
2022-09-28T09:18:08.280Z,12.72
2022-09-28T09:21:33.626Z,12.75
2022-09-28T09:24:59.017Z,12.71
2022-09-28T09:28:24.447Z,12.64
2022-09-28T09:31:49.841Z,12.57
2022-09-28T09:35:15.255Z,12.54
2022-09-28T09:38:40.707Z,12.56
2022-09-28T09:42:06.068Z,12.58
2022-09-28T09:45:31.476Z,12.56
2022-09-28T09:48:56.885Z,12.53
2022-09-28T09:52:22.368Z,12.56
2022-09-28T09:55:47.715Z,12.62
2022-09-28T09:59:13.101Z,12.68
2022-09-28T10:02:38.523Z,12.74
2022-09-28T10:06:03.884Z,12.8
2022-09-28T10:09:29.271Z,12.88
2022-09-28T10:12:54.641Z,12.91
2022-09-28T10:16:20.071Z,12.89
2022-09-28T10:20:00.981Z,12.83
2022-09-28T10:23:26.356Z,12.74
2022-09-28T10:26:51.728Z,12.66
2022-09-28T10:30:17.162Z,12.7
2022-09-28T10:33:42.505Z,12.74
2022-09-28T10:37:07.861Z,12.84
2022-09-28T10:40:33.343Z,12.97
2022-09-28T10:43:58.671Z,13.05
2022-09-28T10:47:24.034Z,13.19
2022-09-28T10:50:49.435Z,13.31
2022-09-28T10:54:14.908Z,13.39
2022-09-28T10:57:40.223Z,13.53
2022-09-28T11:01:05.642Z,13.57
2022-09-28T11:04:31.030Z,13.64
2022-09-28T11:07:56.420Z,13.69
2022-09-28T11:11:21.800Z,13.69
2022-09-28T11:14:47.162Z,13.77
2022-09-28T11:18:12.565Z,13.87
2022-09-28T11:21:37.900Z,14.04
2022-09-28T11:25:03.279Z,14.28
2022-09-28T11:28:28.669Z,14.46
2022-09-28T11:31:54.064Z,14.65
2022-09-28T11:35:19.480Z,14.81
2022-09-28T11:38:44.856Z,14.83
2022-09-28T11:42:14.205Z,14.57
2022-09-28T11:45:35.589Z,14.22
2022-09-28T11:49:00.956Z,13.79
2022-09-28T11:52:26.400Z,13.45
2022-09-28T11:55:51.796Z,13.25
2022-09-28T11:59:17.216Z,13.13
2022-09-28T12:02:42.752Z,13.09
2022-09-28T12:06:08.000Z,13.1
2022-09-28T12:09:33.380Z,13.18
2022-09-28T12:12:58.753Z,13.17
2022-09-28T12:16:45.514Z,13.11
2022-09-28T12:19:49.535Z,13.06
2022-09-28T12:23:14.928Z,13.1
2022-09-28T12:26:40.310Z,13.16
2022-09-28T12:30:05.699Z,13.19
2022-09-28T12:33:31.068Z,13.17
2022-09-28T12:36:56.486Z,13.22
2022-09-28T12:40:21.947Z,13.26
2022-09-28T12:43:47.375Z,13.34
2022-09-28T12:47:12.907Z,13.41
2022-09-28T12:50:40.070Z,13.45
2022-09-28T12:54:03.797Z,13.52
2022-09-28T12:57:29.541Z,13.58
2022-09-28T13:00:55.076Z,13.63
2022-09-28T13:04:20.463Z,13.58
2022-09-28T13:07:46.025Z,13.44
2022-09-28T13:11:11.475Z,13.48
2022-09-28T13:14:36.922Z,13.51
2022-09-28T13:18:02.423Z,13.42
2022-09-28T13:21:27.860Z,13.36
2022-09-28T13:24:53.401Z,13.26
2022-09-28T13:28:18.865Z,13.26
2022-09-28T13:31:44.319Z,13.3
2022-09-28T13:35:09.831Z,13.25
2022-09-28T13:38:35.307Z,13.2
2022-09-28T13:42:00.766Z,13.14
2022-09-28T13:45:26.262Z,13.15
2022-09-28T13:48:51.796Z,13.12
2022-09-28T13:52:17.347Z,13.19
2022-09-28T13:55:42.876Z,13.22
2022-09-28T13:59:08.384Z,13.21
2022-09-28T14:02:34.002Z,13.19
2022-09-28T14:05:59.495Z,13.24
2022-09-28T14:09:25.113Z,13.35
2022-09-28T14:12:59.143Z,13.48
2022-09-28T14:16:24.035Z,13.58
2022-09-28T14:20:03.355Z,13.6
2022-09-28T14:23:41.298Z,13.5
2022-09-28T14:27:06.803Z,13.36
2022-09-28T14:30:32.299Z,13.27
2022-09-28T15:03:50.915Z,11.04
2022-09-28T15:07:16.084Z,12.05
2022-09-28T15:10:41.405Z,12.3
2022-09-28T15:14:06.756Z,12.55
2022-09-28T15:17:33.653Z,12.72
2022-09-28T15:20:57.490Z,12.83
2022-09-28T15:24:22.779Z,12.83
2022-09-28T15:27:48.119Z,12.8
2022-09-28T15:31:13.411Z,12.76
2022-09-28T15:34:39.212Z,12.72
2022-09-28T15:38:04.580Z,12.7
2022-09-28T15:41:29.911Z,12.68
2022-09-28T15:44:55.256Z,12.66
2022-09-28T15:48:20.671Z,12.62
2022-09-28T15:51:46.036Z,12.6
2022-09-28T15:55:11.406Z,12.57
2022-09-28T15:58:36.779Z,12.52
2022-09-28T16:02:05.150Z,12.42
2022-09-28T16:05:27.506Z,12.31
2022-09-28T16:08:52.837Z,12.24
2022-09-28T16:12:18.276Z,12.21
2022-09-28T16:15:44.181Z,12.2
2022-09-28T16:19:09.575Z,12.21
2022-09-28T16:22:35.210Z,12.23
2022-09-28T16:26:00.616Z,12.24
2022-09-28T16:29:26.060Z,12.24
2022-09-28T16:32:51.472Z,12.21
2022-09-28T16:36:16.928Z,12.19
2022-09-28T16:39:42.343Z,12.17
2022-09-28T16:43:07.753Z,12.13
2022-09-28T16:46:33.209Z,12.06
2022-09-28T16:49:58.554Z,12.01
2022-09-28T16:53:24.587Z,11.97
2022-09-28T16:56:50.101Z,11.94
2022-09-28T17:00:15.537Z,11.9
2022-09-28T17:03:41.144Z,11.87
2022-09-28T17:07:06.517Z,11.85
2022-09-28T17:10:31.991Z,11.89
2022-09-28T17:13:57.422Z,11.91
2022-09-28T17:17:22.920Z,11.9
2022-09-28T17:20:48.409Z,11.93
2022-09-28T17:24:13.912Z,11.91
2022-09-28T17:27:39.418Z,11.86
2022-09-28T17:31:04.946Z,11.85
2022-09-28T17:34:30.564Z,11.86
2022-09-28T17:37:56.043Z,11.83
2022-09-28T17:41:21.464Z,11.84
2022-09-28T17:44:46.909Z,11.82
2022-09-28T17:48:12.359Z,11.86
2022-09-28T17:51:37.844Z,11.87
2022-09-28T17:55:03.321Z,11.81
2022-09-28T17:58:28.754Z,11.75
2022-09-28T18:01:54.285Z,11.75
2022-09-28T18:05:19.713Z,11.8
2022-09-28T18:08:45.208Z,11.86
2022-09-28T18:12:10.724Z,11.9
2022-09-28T18:15:36.219Z,11.9
2022-09-28T18:19:01.638Z,11.91
2022-09-28T18:22:27.095Z,11.95
2022-09-28T18:25:52.604Z,11.99
2022-09-28T18:29:18.063Z,12.01
2022-09-28T18:32:43.520Z,12.01
2022-09-28T18:36:08.937Z,12
2022-09-28T18:39:34.370Z,11.94
2022-09-28T18:42:59.834Z,11.91
2022-09-28T18:46:25.383Z,11.91
2022-09-28T18:49:50.755Z,11.91
2022-09-28T18:53:16.233Z,11.92
2022-09-28T18:56:41.700Z,11.9
2022-09-28T19:00:07.092Z,11.9
2022-09-28T19:03:32.573Z,11.91
2022-09-28T19:06:58.033Z,11.9
2022-09-28T19:10:23.478Z,11.93
2022-09-28T19:13:48.977Z,11.95
2022-09-28T19:17:14.433Z,11.98
2022-09-28T19:20:39.916Z,12
2022-09-28T19:24:05.373Z,12.01
2022-09-28T19:27:30.815Z,12.02
2022-09-28T19:30:56.329Z,12.03
2022-09-28T19:34:21.834Z,12.02
2022-09-28T19:37:47.228Z,11.99
2022-09-28T19:41:12.671Z,11.98
2022-09-28T19:44:38.123Z,11.99
2022-09-28T19:48:03.559Z,11.98
2022-09-28T19:51:28.998Z,11.99
2022-09-28T19:54:54.519Z,11.98
2022-09-28T19:58:19.898Z,11.96
2022-09-28T20:01:45.433Z,11.96
2022-09-28T20:05:10.846Z,11.96
2022-09-28T20:08:36.302Z,11.92
2022-09-28T20:12:01.794Z,11.87
2022-09-28T20:15:27.250Z,11.8
2022-09-28T20:18:52.664Z,11.75
2022-09-28T20:22:18.109Z,11.69
2022-09-28T20:25:43.571Z,11.64
2022-09-28T20:29:09.046Z,11.55
2022-09-28T20:32:34.475Z,11.47
2022-09-28T20:35:59.956Z,11.43
2022-09-28T20:39:25.376Z,11.35
2022-09-28T20:42:50.856Z,11.25
2022-09-28T20:46:16.487Z,11.19
2022-09-28T20:49:41.851Z,11.12
2022-09-28T20:53:07.390Z,11.06
2022-09-28T20:56:32.828Z,11.01
2022-09-28T20:59:58.281Z,10.96
2022-09-28T21:03:23.788Z,10.94
2022-09-28T21:06:49.168Z,10.91
2022-09-28T21:10:14.634Z,10.88
2022-09-28T21:13:40.075Z,10.85
2022-09-28T21:17:05.525Z,10.83
2022-09-28T21:20:31.060Z,10.79
2022-09-28T21:23:56.480Z,10.75
2022-09-28T21:27:21.953Z,10.71
2022-09-28T21:30:47.491Z,10.66
2022-09-28T21:34:12.902Z,10.62
2022-09-28T21:37:38.486Z,10.59
2022-09-28T21:41:03.880Z,10.59
2022-09-28T21:44:29.300Z,10.62
2022-09-28T21:47:54.748Z,10.61
2022-09-28T21:51:20.250Z,10.64
2022-09-28T21:54:45.726Z,10.65
2022-09-28T21:58:11.166Z,10.65
2022-09-28T22:01:36.686Z,10.66
2022-09-28T22:05:02.040Z,10.66
2022-09-28T22:08:27.458Z,10.65
2022-09-28T22:11:52.925Z,10.65
2022-09-28T22:15:18.379Z,10.65
2022-09-28T22:18:43.774Z,10.65
2022-09-28T22:22:09.261Z,10.62
2022-09-28T22:25:34.761Z,10.58
2022-09-28T22:29:00.310Z,10.54
2022-09-28T22:32:25.718Z,10.55
2022-09-28T22:35:51.227Z,10.51
2022-09-28T22:39:16.710Z,10.54
2022-09-28T22:42:42.164Z,10.54
2022-09-28T22:46:07.732Z,10.57
2022-09-28T22:49:33.153Z,10.59
2022-09-28T22:52:58.598Z,10.6
2022-09-28T22:56:24.014Z,10.59
2022-09-28T22:59:49.552Z,10.56
2022-09-28T23:03:15.065Z,10.55
2022-09-28T23:06:40.412Z,10.57
2022-09-28T23:10:05.890Z,10.61
2022-09-28T23:13:31.339Z,10.65
2022-09-28T23:16:56.794Z,10.71
2022-09-28T23:20:22.242Z,10.74
2022-09-28T23:23:47.666Z,10.77
2022-09-28T23:27:13.126Z,10.79
2022-09-28T23:30:38.567Z,10.8
2022-09-28T23:34:04.056Z,10.82
2022-09-28T23:37:29.483Z,10.85
2022-09-28T23:40:54.923Z,10.88
2022-09-28T23:44:20.344Z,10.91
2022-09-28T23:47:45.758Z,10.92
2022-09-28T23:51:11.239Z,10.94
2022-09-28T23:54:36.721Z,10.98
2022-09-28T23:58:02.169Z,11
